sensor_id;sensor_type;location;lat;lon;timestamp;P1;durP1;ratioP1;P2;durP2;ratioP2
15799;SDS011;8002;51.196;7.010;2023-08-20T00:02:21;9.02;;;8.23;;
15799;SDS011;8002;51.196;7.010;2023-08-20T00:04:49;7.82;;;7.22;;
15799;SDS011;8002;51.196;7.010;2023-08-20T00:07:15;8.90;;;7.43;;
15799;SDS011;8002;51.196;7.010;2023-08-20T00:09:43;7.97;;;7.28;;
15799;SDS011;8002;51.196;7.010;2023-08-20T00:12:11;7.80;;;7.20;;
15799;SDS011;8002;51.196;7.010;2023-08-20T00:14:53;7.53;;;6.93;;
15799;SDS011;8002;51.196;7.010;2023-08-20T00:17:20;9.32;;;8.55;;
15799;SDS011;8002;51.196;7.010;2023-08-20T00:19:47;8.43;;;7.72;;
15799;SDS011;8002;51.196;7.010;2023-08-20T00:22:13;8.45;;;7.60;;
15799;SDS011;8002;51.196;7.010;2023-08-20T00:24:40;8.38;;;7.63;;
15799;SDS011;8002;51.196;7.010;2023-08-20T00:27:07;8.65;;;8.05;;
15799;SDS011;8002;51.196;7.010;2023-08-20T00:29:35;9.10;;;8.30;;
15799;SDS011;8002;51.196;7.010;2023-08-20T00:32:01;9.10;;;8.35;;
15799;SDS011;8002;51.196;7.010;2023-08-20T00:34:27;9.05;;;8.35;;
15799;SDS011;8002;51.196;7.010;2023-08-20T00:36:54;9.63;;;8.73;;
15799;SDS011;8002;51.196;7.010;2023-08-20T00:39:20;8.50;;;7.80;;
15799;SDS011;8002;51.196;7.010;2023-08-20T00:41:46;9.90;;;8.98;;
15799;SDS011;8002;51.196;7.010;2023-08-20T00:44:13;9.07;;;8.35;;
15799;SDS011;8002;51.196;7.010;2023-08-20T00:46:41;9.98;;;9.07;;
15799;SDS011;8002;51.196;7.010;2023-08-20T00:49:08;8.77;;;8.05;;
15799;SDS011;8002;51.196;7.010;2023-08-20T00:51:34;9.45;;;8.65;;
15799;SDS011;8002;51.196;7.010;2023-08-20T00:54:01;9.65;;;8.75;;
15799;SDS011;8002;51.196;7.010;2023-08-20T00:56:28;11.13;;;10.02;;
15799;SDS011;8002;51.196;7.010;2023-08-20T00:58:55;10.52;;;9.48;;
15799;SDS011;8002;51.196;7.010;2023-08-20T01:01:21;10.07;;;9.13;;
15799;SDS011;8002;51.196;7.010;2023-08-20T01:03:49;10.30;;;9.40;;
15799;SDS011;8002;51.196;7.010;2023-08-20T01:06:18;10.05;;;9.15;;
15799;SDS011;8002;51.196;7.010;2023-08-20T01:08:46;9.10;;;8.30;;
15799;SDS011;8002;51.196;7.010;2023-08-20T01:11:16;9.88;;;8.98;;
15799;SDS011;8002;51.196;7.010;2023-08-20T01:13:43;10.68;;;9.73;;
15799;SDS011;8002;51.196;7.010;2023-08-20T01:16:11;10.55;;;9.52;;
15799;SDS011;8002;51.196;7.010;2023-08-20T01:18:37;9.20;;;8.45;;
15799;SDS011;8002;51.196;7.010;2023-08-20T01:21:06;10.02;;;9.00;;
15799;SDS011;8002;51.196;7.010;2023-08-20T01:23:45;10.55;;;9.43;;
15799;SDS011;8002;51.196;7.010;2023-08-20T01:26:20;9.23;;;8.50;;
15799;SDS011;8002;51.196;7.010;2023-08-20T01:28:49;9.55;;;8.75;;
15799;SDS011;8002;51.196;7.010;2023-08-20T01:31:16;9.40;;;8.60;;
15799;SDS011;8002;51.196;7.010;2023-08-20T01:33:43;9.93;;;8.98;;
15799;SDS011;8002;51.196;7.010;2023-08-20T01:36:10;9.00;;;8.30;;
15799;SDS011;8002;51.196;7.010;2023-08-20T01:38:36;9.85;;;9.00;;
15799;SDS011;8002;51.196;7.010;2023-08-20T01:41:03;9.40;;;8.43;;
15799;SDS011;8002;51.196;7.010;2023-08-20T01:43:29;8.98;;;8.23;;
15799;SDS011;8002;51.196;7.010;2023-08-20T01:45:57;8.30;;;7.60;;
15799;SDS011;8002;51.196;7.010;2023-08-20T01:48:23;9.70;;;9.00;;
15799;SDS011;8002;51.196;7.010;2023-08-20T01:50:49;9.23;;;8.52;;
15799;SDS011;8002;51.196;7.010;2023-08-20T01:53:16;9.02;;;8.13;;
15799;SDS011;8002;51.196;7.010;2023-08-20T01:55:42;8.18;;;7.47;;
15799;SDS011;8002;51.196;7.010;2023-08-20T01:58:08;10.00;;;9.20;;
15799;SDS011;8002;51.196;7.010;2023-08-20T02:00:34;9.07;;;8.38;;
15799;SDS011;8002;51.196;7.010;2023-08-20T02:03:02;8.77;;;7.97;;
15799;SDS011;8002;51.196;7.010;2023-08-20T02:05:29;8.52;;;7.80;;
15799;SDS011;8002;51.196;7.010;2023-08-20T02:07:55;9.35;;;8.55;;
15799;SDS011;8002;51.196;7.010;2023-08-20T02:10:21;9.23;;;8.40;;
15799;SDS011;8002;51.196;7.010;2023-08-20T02:12:48;10.57;;;9.55;;
15799;SDS011;8002;51.196;7.010;2023-08-20T02:15:14;8.98;;;8.27;;
15799;SDS011;8002;51.196;7.010;2023-08-20T02:17:40;8.30;;;7.55;;
15799;SDS011;8002;51.196;7.010;2023-08-20T02:20:08;8.80;;;8.10;;
15799;SDS011;8002;51.196;7.010;2023-08-20T02:22:35;8.48;;;7.78;;
15799;SDS011;8002;51.196;7.010;2023-08-20T02:25:02;8.68;;;7.90;;
15799;SDS011;8002;51.196;7.010;2023-08-20T02:27:28;8.75;;;7.88;;
15799;SDS011;8002;51.196;7.010;2023-08-20T02:29:55;8.93;;;8.13;;
15799;SDS011;8002;51.196;7.010;2023-08-20T02:32:21;8.25;;;7.63;;
15799;SDS011;8002;51.196;7.010;2023-08-20T02:34:48;8.98;;;8.20;;
15799;SDS011;8002;51.196;7.010;2023-08-20T02:37:16;8.88;;;8.18;;
15799;SDS011;8002;51.196;7.010;2023-08-20T02:39:42;8.57;;;7.78;;
15799;SDS011;8002;51.196;7.010;2023-08-20T02:42:09;9.35;;;8.57;;
15799;SDS011;8002;51.196;7.010;2023-08-20T02:44:35;8.10;;;7.43;;
15799;SDS011;8002;51.196;7.010;2023-08-20T02:47:02;8.80;;;8.10;;
15799;SDS011;8002;51.196;7.010;2023-08-20T02:49:28;8.23;;;7.63;;
15799;SDS011;8002;51.196;7.010;2023-08-20T02:51:54;8.07;;;7.38;;
15799;SDS011;8002;51.196;7.010;2023-08-20T02:54:22;8.60;;;7.82;;
15799;SDS011;8002;51.196;7.010;2023-08-20T02:56:50;8.88;;;8.18;;
15799;SDS011;8002;51.196;7.010;2023-08-20T02:59:17;9.80;;;8.98;;
15799;SDS011;8002;51.196;7.010;2023-08-20T03:01:43;9.90;;;9.10;;
15799;SDS011;8002;51.196;7.010;2023-08-20T03:04:09;9.30;;;8.50;;
15799;SDS011;8002;51.196;7.010;2023-08-20T03:06:36;9.55;;;8.75;;
15799;SDS011;8002;51.196;7.010;2023-08-20T03:09:02;9.05;;;8.35;;
15799;SDS011;8002;51.196;7.010;2023-08-20T03:11:31;9.23;;;8.52;;
15799;SDS011;8002;51.196;7.010;2023-08-20T03:13:58;9.70;;;8.90;;
15799;SDS011;8002;51.196;7.010;2023-08-20T03:16:24;9.27;;;8.48;;
15799;SDS011;8002;51.196;7.010;2023-08-20T03:18:50;9.35;;;8.45;;
15799;SDS011;8002;51.196;7.010;2023-08-20T03:21:16;9.32;;;8.63;;
15799;SDS011;8002;51.196;7.010;2023-08-20T03:23:43;9.40;;;8.50;;
15799;SDS011;8002;51.196;7.010;2023-08-20T03:26:09;9.60;;;8.80;;
15799;SDS011;8002;51.196;7.010;2023-08-20T03:28:37;10.13;;;9.32;;
15799;SDS011;8002;51.196;7.010;2023-08-20T03:31:03;10.02;;;9.23;;
15799;SDS011;8002;51.196;7.010;2023-08-20T03:33:29;9.88;;;8.85;;
15799;SDS011;8002;51.196;7.010;2023-08-20T03:35:56;10.13;;;9.23;;
15799;SDS011;8002;51.196;7.010;2023-08-20T03:38:22;10.57;;;9.48;;
15799;SDS011;8002;51.196;7.010;2023-08-20T03:40:49;10.23;;;9.32;;
15799;SDS011;8002;51.196;7.010;2023-08-20T03:43:16;8.63;;;8.00;;
15799;SDS011;8002;51.196;7.010;2023-08-20T03:45:43;8.90;;;8.20;;
15799;SDS011;8002;51.196;7.010;2023-08-20T03:48:10;9.57;;;8.77;;
15799;SDS011;8002;51.196;7.010;2023-08-20T03:50:36;9.30;;;8.43;;
15799;SDS011;8002;51.196;7.010;2023-08-20T03:53:02;9.00;;;8.30;;
15799;SDS011;8002;51.196;7.010;2023-08-20T03:55:29;9.10;;;8.30;;
15799;SDS011;8002;51.196;7.010;2023-08-20T03:57:55;9.90;;;9.10;;
15799;SDS011;8002;51.196;7.010;2023-08-20T04:00:21;8.35;;;7.63;;
15799;SDS011;8002;51.196;7.010;2023-08-20T04:02:49;9.45;;;8.52;;
15799;SDS011;8002;51.196;7.010;2023-08-20T04:05:15;9.80;;;8.93;;
15799;SDS011;8002;51.196;7.010;2023-08-20T04:07:42;8.88;;;8.07;;
15799;SDS011;8002;51.196;7.010;2023-08-20T04:10:08;8.65;;;7.85;;
15799;SDS011;8002;51.196;7.010;2023-08-20T04:12:35;8.13;;;7.43;;
15799;SDS011;8002;51.196;7.010;2023-08-20T04:15:01;8.48;;;7.88;;
15799;SDS011;8002;51.196;7.010;2023-08-20T04:17:28;9.13;;;8.23;;
15799;SDS011;8002;51.196;7.010;2023-08-20T04:19:55;10.38;;;9.55;;
15799;SDS011;8002;51.196;7.010;2023-08-20T04:22:22;9.35;;;8.65;;
15799;SDS011;8002;51.196;7.010;2023-08-20T04:24:48;8.35;;;7.63;;
15799;SDS011;8002;51.196;7.010;2023-08-20T04:27:14;8.23;;;7.50;;
15799;SDS011;8002;51.196;7.010;2023-08-20T04:29:41;8.98;;;8.00;;
15799;SDS011;8002;51.196;7.010;2023-08-20T04:32:07;8.52;;;7.85;;
15799;SDS011;8002;51.196;7.010;2023-08-20T04:34:34;8.80;;;8.10;;
15799;SDS011;8002;51.196;7.010;2023-08-20T04:37:01;8.38;;;7.72;;
15799;SDS011;8002;51.196;7.010;2023-08-20T04:39:28;10.05;;;8.95;;
15799;SDS011;8002;51.196;7.010;2023-08-20T04:41:54;8.82;;;8.23;;
15799;SDS011;8002;51.196;7.010;2023-08-20T04:44:22;8.13;;;7.53;;
15799;SDS011;8002;51.196;7.010;2023-08-20T04:46:48;8.65;;;7.95;;
15799;SDS011;8002;51.196;7.010;2023-08-20T04:49:15;8.85;;;8.05;;
15799;SDS011;8002;51.196;7.010;2023-08-20T04:51:41;8.93;;;8.00;;
15799;SDS011;8002;51.196;7.010;2023-08-20T04:54:09;9.40;;;8.50;;
15799;SDS011;8002;51.196;7.010;2023-08-20T04:56:35;7.95;;;7.35;;
15799;SDS011;8002;51.196;7.010;2023-08-20T04:59:02;8.00;;;7.40;;
15799;SDS011;8002;51.196;7.010;2023-08-20T05:01:28;8.00;;;7.40;;
15799;SDS011;8002;51.196;7.010;2023-08-20T05:03:54;9.05;;;8.25;;
15799;SDS011;8002;51.196;7.010;2023-08-20T05:06:20;8.60;;;7.78;;
15799;SDS011;8002;51.196;7.010;2023-08-20T05:08:47;7.90;;;7.20;;
15799;SDS011;8002;51.196;7.010;2023-08-20T05:11:15;8.75;;;7.93;;
15799;SDS011;8002;51.196;7.010;2023-08-20T05:13:41;8.38;;;7.78;;
15799;SDS011;8002;51.196;7.010;2023-08-20T05:16:07;8.35;;;7.65;;
15799;SDS011;8002;51.196;7.010;2023-08-20T05:18:34;8.10;;;7.40;;
15799;SDS011;8002;51.196;7.010;2023-08-20T05:21:00;8.63;;;7.93;;
15799;SDS011;8002;51.196;7.010;2023-08-20T05:23:26;8.82;;;8.02;;
15799;SDS011;8002;51.196;7.010;2023-08-20T05:25:53;10.27;;;9.48;;
15799;SDS011;8002;51.196;7.010;2023-08-20T05:28:20;10.52;;;9.63;;
15799;SDS011;8002;51.196;7.010;2023-08-20T05:30:53;9.52;;;8.77;;
15799;SDS011;8002;51.196;7.010;2023-08-20T05:33:19;8.75;;;7.95;;
15799;SDS011;8002;51.196;7.010;2023-08-20T05:35:46;8.85;;;8.15;;
15799;SDS011;8002;51.196;7.010;2023-08-20T05:38:12;9.18;;;8.48;;
15799;SDS011;8002;51.196;7.010;2023-08-20T05:40:38;10.10;;;9.27;;
15799;SDS011;8002;51.196;7.010;2023-08-20T05:43:05;9.32;;;8.55;;
15799;SDS011;8002;51.196;7.010;2023-08-20T05:45:32;8.63;;;7.93;;
15799;SDS011;8002;51.196;7.010;2023-08-20T05:47:59;9.65;;;8.85;;
15799;SDS011;8002;51.196;7.010;2023-08-20T05:50:25;9.50;;;8.70;;
15799;SDS011;8002;51.196;7.010;2023-08-20T05:52:52;9.07;;;8.27;;
15799;SDS011;8002;51.196;7.010;2023-08-20T05:55:18;9.00;;;8.20;;
15799;SDS011;8002;51.196;7.010;2023-08-20T05:57:44;9.63;;;8.85;;
15799;SDS011;8002;51.196;7.010;2023-08-20T06:00:11;8.70;;;7.97;;
15799;SDS011;8002;51.196;7.010;2023-08-20T06:02:39;10.05;;;9.15;;
15799;SDS011;8002;51.196;7.010;2023-08-20T06:05:05;9.73;;;8.82;;
15799;SDS011;8002;51.196;7.010;2023-08-20T06:07:31;10.65;;;8.98;;
15799;SDS011;8002;51.196;7.010;2023-08-20T06:09:58;9.88;;;9.07;;
15799;SDS011;8002;51.196;7.010;2023-08-20T06:12:24;10.15;;;9.27;;
15799;SDS011;8002;51.196;7.010;2023-08-20T06:14:51;10.70;;;9.77;;
15799;SDS011;8002;51.196;7.010;2023-08-20T06:17:17;9.23;;;8.35;;
15799;SDS011;8002;51.196;7.010;2023-08-20T06:19:45;9.27;;;8.38;;
15799;SDS011;8002;51.196;7.010;2023-08-20T06:22:11;9.38;;;8.45;;
15799;SDS011;8002;51.196;7.010;2023-08-20T06:24:37;9.57;;;8.68;;
15799;SDS011;8002;51.196;7.010;2023-08-20T06:27:04;9.77;;;8.88;;
15799;SDS011;8002;51.196;7.010;2023-08-20T06:29:30;10.95;;;9.95;;
15799;SDS011;8002;51.196;7.010;2023-08-20T06:31:57;10.07;;;9.20;;
15799;SDS011;8002;51.196;7.010;2023-08-20T06:34:23;10.40;;;9.27;;
15799;SDS011;8002;51.196;7.010;2023-08-20T06:36:51;9.52;;;8.73;;
15799;SDS011;8002;51.196;7.010;2023-08-20T06:39:17;9.23;;;8.13;;
15799;SDS011;8002;51.196;7.010;2023-08-20T06:41:45;9.45;;;8.65;;
15799;SDS011;8002;51.196;7.010;2023-08-20T06:44:11;7.00;;;6.40;;
15799;SDS011;8002;51.196;7.010;2023-08-20T06:46:37;8.00;;;7.30;;
15799;SDS011;8002;51.196;7.010;2023-08-20T06:49:04;8.77;;;7.75;;
15799;SDS011;8002;51.196;7.010;2023-08-20T06:51:30;7.40;;;6.75;;
15799;SDS011;8002;51.196;7.010;2023-08-20T06:53:58;8.85;;;7.95;;
15799;SDS011;8002;51.196;7.010;2023-08-20T06:56:24;7.78;;;6.97;;
15799;SDS011;8002;51.196;7.010;2023-08-20T06:58:50;7.28;;;6.65;;
15799;SDS011;8002;51.196;7.010;2023-08-20T07:01:17;6.97;;;6.38;;
15799;SDS011;8002;51.196;7.010;2023-08-20T07:03:43;7.75;;;7.15;;
15799;SDS011;8002;51.196;7.010;2023-08-20T07:06:10;7.22;;;6.72;;
15799;SDS011;8002;51.196;7.010;2023-08-20T07:08:37;6.95;;;6.35;;
15799;SDS011;8002;51.196;7.010;2023-08-20T07:11:05;6.93;;;6.35;;
15799;SDS011;8002;51.196;7.010;2023-08-20T07:13:32;7.40;;;6.13;;
15799;SDS011;8002;51.196;7.010;2023-08-20T07:15:58;7.03;;;6.43;;
15799;SDS011;8002;51.196;7.010;2023-08-20T07:18:25;6.22;;;5.63;;
15799;SDS011;8002;51.196;7.010;2023-08-20T07:20:51;6.45;;;5.85;;
15799;SDS011;8002;51.196;7.010;2023-08-20T07:23:17;6.65;;;6.05;;
15799;SDS011;8002;51.196;7.010;2023-08-20T07:25:44;6.80;;;6.20;;
15799;SDS011;8002;51.196;7.010;2023-08-20T07:28:13;6.57;;;6.07;;
15799;SDS011;8002;51.196;7.010;2023-08-20T07:30:39;6.88;;;6.35;;
15799;SDS011;8002;51.196;7.010;2023-08-20T07:33:05;8.25;;;7.60;;
15799;SDS011;8002;51.196;7.010;2023-08-20T07:35:32;7.38;;;6.85;;
15799;SDS011;8002;51.196;7.010;2023-08-20T07:37:58;8.60;;;7.88;;
15799;SDS011;8002;51.196;7.010;2023-08-20T07:40:25;7.38;;;6.68;;
15799;SDS011;8002;51.196;7.010;2023-08-20T07:42:51;7.35;;;6.75;;
15799;SDS011;8002;51.196;7.010;2023-08-20T07:45:19;6.93;;;6.43;;
15799;SDS011;8002;51.196;7.010;2023-08-20T07:47:45;7.95;;;7.25;;
15799;SDS011;8002;51.196;7.010;2023-08-20T07:50:11;8.93;;;8.15;;
15799;SDS011;8002;51.196;7.010;2023-08-20T07:52:38;8.52;;;7.82;;
15799;SDS011;8002;51.196;7.010;2023-08-20T07:55:05;7.60;;;6.90;;
15799;SDS011;8002;51.196;7.010;2023-08-20T07:57:31;8.13;;;7.40;;
15799;SDS011;8002;51.196;7.010;2023-08-20T07:59:58;8.07;;;7.38;;
15799;SDS011;8002;51.196;7.010;2023-08-20T08:02:25;7.13;;;6.53;;
15799;SDS011;8002;51.196;7.010;2023-08-20T08:04:52;8.40;;;7.68;;
15799;SDS011;8002;51.196;7.010;2023-08-20T08:07:18;8.63;;;7.88;;
15799;SDS011;8002;51.196;7.010;2023-08-20T08:09:44;5.32;;;4.78;;
15799;SDS011;8002;51.196;7.010;2023-08-20T08:12:11;5.47;;;5.15;;
15799;SDS011;8002;51.196;7.010;2023-08-20T08:14:37;5.93;;;5.50;;
15799;SDS011;8002;51.196;7.010;2023-08-20T08:17:04;6.65;;;6.05;;
15799;SDS011;8002;51.196;7.010;2023-08-20T08:19:32;7.03;;;5.35;;
15799;SDS011;8002;51.196;7.010;2023-08-20T08:21:58;7.10;;;6.55;;
15799;SDS011;8002;51.196;7.010;2023-08-20T08:24:24;7.65;;;7.05;;
15799;SDS011;8002;51.196;7.010;2023-08-20T08:26:50;7.68;;;6.97;;
15799;SDS011;8002;51.196;7.010;2023-08-20T08:29:17;7.95;;;7.25;;
15799;SDS011;8002;51.196;7.010;2023-08-20T08:31:43;7.50;;;6.82;;
15799;SDS011;8002;51.196;7.010;2023-08-20T08:34:09;7.38;;;6.68;;
15799;SDS011;8002;51.196;7.010;2023-08-20T08:36:37;8.10;;;7.38;;
15799;SDS011;8002;51.196;7.010;2023-08-20T08:39:04;7.05;;;6.35;;
15799;SDS011;8002;51.196;7.010;2023-08-20T08:41:30;7.68;;;6.75;;
15799;SDS011;8002;51.196;7.010;2023-08-20T08:43:57;6.57;;;5.97;;
15799;SDS011;8002;51.196;7.010;2023-08-20T08:46:24;5.72;;;5.18;;
15799;SDS011;8002;51.196;7.010;2023-08-20T08:48:51;6.30;;;5.78;;
15799;SDS011;8002;51.196;7.010;2023-08-20T08:51:18;6.38;;;5.88;;
15799;SDS011;8002;51.196;7.010;2023-08-20T08:53:46;7.35;;;6.65;;
15799;SDS011;8002;51.196;7.010;2023-08-20T08:56:12;6.43;;;5.82;;
15799;SDS011;8002;51.196;7.010;2023-08-20T08:58:38;5.53;;;5.13;;
15799;SDS011;8002;51.196;7.010;2023-08-20T09:01:05;5.40;;;4.90;;
15799;SDS011;8002;51.196;7.010;2023-08-20T09:03:31;5.70;;;5.20;;
15799;SDS011;8002;51.196;7.010;2023-08-20T09:05:58;5.18;;;4.65;;
15799;SDS011;8002;51.196;7.010;2023-08-20T09:08:26;3.83;;;3.53;;
15799;SDS011;8002;51.196;7.010;2023-08-20T09:10:54;5.68;;;5.20;;
15799;SDS011;8002;51.196;7.010;2023-08-20T09:13:22;4.97;;;4.57;;
15799;SDS011;8002;51.196;7.010;2023-08-20T09:15:50;4.82;;;4.43;;
15799;SDS011;8002;51.196;7.010;2023-08-20T09:18:16;4.57;;;4.18;;
15799;SDS011;8002;51.196;7.010;2023-08-20T09:20:43;3.83;;;3.60;;
15799;SDS011;8002;51.196;7.010;2023-08-20T09:23:10;3.70;;;3.40;;
15799;SDS011;8002;51.196;7.010;2023-08-20T09:25:36;4.40;;;4.10;;
15799;SDS011;8002;51.196;7.010;2023-08-20T09:28:04;4.53;;;4.13;;
15799;SDS011;8002;51.196;7.010;2023-08-20T09:30:31;4.05;;;3.70;;
15799;SDS011;8002;51.196;7.010;2023-08-20T09:33:04;4.15;;;3.85;;
15799;SDS011;8002;51.196;7.010;2023-08-20T09:35:31;3.60;;;3.30;;
15799;SDS011;8002;51.196;7.010;2023-08-20T09:38:00;4.50;;;4.18;;
15799;SDS011;8002;51.196;7.010;2023-08-20T09:40:27;4.45;;;4.05;;
15799;SDS011;8002;51.196;7.010;2023-08-20T09:42:53;4.90;;;4.50;;
15799;SDS011;8002;51.196;7.010;2023-08-20T09:45:21;3.70;;;3.40;;
15799;SDS011;8002;51.196;7.010;2023-08-20T09:47:49;5.05;;;4.15;;
15799;SDS011;8002;51.196;7.010;2023-08-20T09:50:20;3.53;;;3.33;;
15799;SDS011;8002;51.196;7.010;2023-08-20T09:52:48;3.70;;;3.40;;
15799;SDS011;8002;51.196;7.010;2023-08-20T09:55:16;4.00;;;3.70;;
15799;SDS011;8002;51.196;7.010;2023-08-20T09:57:42;3.33;;;3.10;;
15799;SDS011;8002;51.196;7.010;2023-08-20T10:00:10;3.55;;;3.25;;
15799;SDS011;8002;51.196;7.010;2023-08-20T10:02:38;4.20;;;3.80;;
15799;SDS011;8002;51.196;7.010;2023-08-20T10:05:05;4.15;;;3.85;;
15799;SDS011;8002;51.196;7.010;2023-08-20T10:07:32;5.15;;;4.63;;
15799;SDS011;8002;51.196;7.010;2023-08-20T10:09:59;3.92;;;3.63;;
15799;SDS011;8002;51.196;7.010;2023-08-20T10:12:26;4.55;;;4.20;;
15799;SDS011;8002;51.196;7.010;2023-08-20T10:14:53;4.03;;;3.72;;
15799;SDS011;8002;51.196;7.010;2023-08-20T10:17:19;4.15;;;3.85;;
15799;SDS011;8002;51.196;7.010;2023-08-20T10:19:49;3.80;;;3.50;;
15799;SDS011;8002;51.196;7.010;2023-08-20T10:22:16;3.90;;;3.60;;
15799;SDS011;8002;51.196;7.010;2023-08-20T10:24:47;3.90;;;3.60;;
15799;SDS011;8002;51.196;7.010;2023-08-20T10:27:22;3.80;;;3.50;;
15799;SDS011;8002;51.196;7.010;2023-08-20T10:29:49;3.65;;;3.45;;
15799;SDS011;8002;51.196;7.010;2023-08-20T10:32:15;4.03;;;3.72;;
15799;SDS011;8002;51.196;7.010;2023-08-20T10:34:42;3.53;;;3.33;;
15799;SDS011;8002;51.196;7.010;2023-08-20T10:37:10;3.63;;;3.40;;
15799;SDS011;8002;51.196;7.010;2023-08-20T10:39:38;4.18;;;3.88;;
15799;SDS011;8002;51.196;7.010;2023-08-20T10:42:22;4.05;;;3.65;;
15799;SDS011;8002;51.196;7.010;2023-08-20T10:44:57;3.78;;;3.47;;
15799;SDS011;8002;51.196;7.010;2023-08-20T10:47:23;3.80;;;3.50;;
15799;SDS011;8002;51.196;7.010;2023-08-20T10:49:50;3.65;;;3.35;;
15799;SDS011;8002;51.196;7.010;2023-08-20T10:52:19;3.15;;;2.85;;
15799;SDS011;8002;51.196;7.010;2023-08-20T10:54:45;3.35;;;3.13;;
15799;SDS011;8002;51.196;7.010;2023-08-20T10:57:11;4.53;;;2.88;;
15799;SDS011;8002;51.196;7.010;2023-08-20T10:59:39;3.00;;;2.80;;
15799;SDS011;8002;51.196;7.010;2023-08-20T11:02:06;3.63;;;3.20;;
15799;SDS011;8002;51.196;7.010;2023-08-20T11:04:35;3.63;;;3.35;;
15799;SDS011;8002;51.196;7.010;2023-08-20T11:07:02;3.15;;;2.95;;
15799;SDS011;8002;51.196;7.010;2023-08-20T11:09:30;2.78;;;2.67;;
15799;SDS011;8002;51.196;7.010;2023-08-20T11:11:57;3.00;;;2.80;;
15799;SDS011;8002;51.196;7.010;2023-08-20T11:14:24;3.47;;;3.28;;
15799;SDS011;8002;51.196;7.010;2023-08-20T11:16:50;3.47;;;3.17;;
15799;SDS011;8002;51.196;7.010;2023-08-20T11:19:19;2.80;;;2.65;;
15799;SDS011;8002;51.196;7.010;2023-08-20T11:21:45;3.53;;;3.25;;
15799;SDS011;8002;51.196;7.010;2023-08-20T11:24:12;3.58;;;3.28;;
15799;SDS011;8002;51.196;7.010;2023-08-20T11:26:41;4.00;;;3.70;;
15799;SDS011;8002;51.196;7.010;2023-08-20T11:29:07;4.10;;;3.80;;
15799;SDS011;8002;51.196;7.010;2023-08-20T11:31:34;3.85;;;3.55;;
15799;SDS011;8002;51.196;7.010;2023-08-20T11:34:01;3.70;;;3.40;;
15799;SDS011;8002;51.196;7.010;2023-08-20T11:36:28;3.80;;;3.60;;
15799;SDS011;8002;51.196;7.010;2023-08-20T11:38:54;3.47;;;3.28;;
15799;SDS011;8002;51.196;7.010;2023-08-20T11:41:21;2.83;;;2.63;;
15799;SDS011;8002;51.196;7.010;2023-08-20T11:43:48;3.88;;;3.58;;
15799;SDS011;8002;51.196;7.010;2023-08-20T11:46:15;3.00;;;2.80;;
15799;SDS011;8002;51.196;7.010;2023-08-20T11:51:23;3.60;;;3.30;;
15799;SDS011;8002;51.196;7.010;2023-08-20T11:53:49;3.17;;;2.97;;
15799;SDS011;8002;51.196;7.010;2023-08-20T11:56:15;2.30;;;2.20;;
15799;SDS011;8002;51.196;7.010;2023-08-20T11:58:42;2.70;;;2.60;;
15799;SDS011;8002;51.196;7.010;2023-08-20T12:01:09;2.47;;;2.38;;
15799;SDS011;8002;51.196;7.010;2023-08-20T12:03:37;3.33;;;3.13;;
15799;SDS011;8002;51.196;7.010;2023-08-20T12:06:16;3.25;;;3.05;;
15799;SDS011;8002;51.196;7.010;2023-08-20T12:08:42;2.80;;;2.70;;
15799;SDS011;8002;51.196;7.010;2023-08-20T12:11:09;3.40;;;3.20;;
15799;SDS011;8002;51.196;7.010;2023-08-20T12:13:35;3.15;;;2.65;;
15799;SDS011;8002;51.196;7.010;2023-08-20T12:16:02;3.13;;;2.83;;
15799;SDS011;8002;51.196;7.010;2023-08-20T12:18:30;2.50;;;2.40;;
15799;SDS011;8002;51.196;7.010;2023-08-20T12:20:56;3.47;;;3.10;;
15799;SDS011;8002;51.196;7.010;2023-08-20T12:23:23;3.67;;;3.40;;
15799;SDS011;8002;51.196;7.010;2023-08-20T12:25:50;3.80;;;3.50;;
15799;SDS011;8002;51.196;7.010;2023-08-20T12:28:16;3.03;;;2.83;;
15799;SDS011;8002;51.196;7.010;2023-08-20T12:30:42;2.97;;;2.78;;
15799;SDS011;8002;51.196;7.010;2023-08-20T12:33:09;2.88;;;2.75;;
15799;SDS011;8002;51.196;7.010;2023-08-20T12:35:37;3.00;;;2.80;;
15799;SDS011;8002;51.196;7.010;2023-08-20T12:38:03;3.78;;;3.47;;
15799;SDS011;8002;51.196;7.010;2023-08-20T12:40:30;2.72;;;2.58;;
15799;SDS011;8002;51.196;7.010;2023-08-20T12:42:56;2.95;;;2.75;;
15799;SDS011;8002;51.196;7.010;2023-08-20T12:45:23;3.17;;;2.97;;
15799;SDS011;8002;51.196;7.010;2023-08-20T12:47:49;2.20;;;2.10;;
15799;SDS011;8002;51.196;7.010;2023-08-20T12:50:15;3.70;;;3.50;;
15799;SDS011;8002;51.196;7.010;2023-08-20T12:52:43;3.38;;;3.08;;
15799;SDS011;8002;51.196;7.010;2023-08-20T12:55:09;2.28;;;2.17;;
15799;SDS011;8002;51.196;7.010;2023-08-20T12:57:36;2.78;;;2.58;;
15799;SDS011;8002;51.196;7.010;2023-08-20T13:00:03;2.67;;;2.47;;
15799;SDS011;8002;51.196;7.010;2023-08-20T13:02:36;3.50;;;3.30;;
15799;SDS011;8002;51.196;7.010;2023-08-20T13:05:03;3.50;;;3.30;;
15799;SDS011;8002;51.196;7.010;2023-08-20T13:07:30;3.13;;;3.00;;
15799;SDS011;8002;51.196;7.010;2023-08-20T13:09:58;2.40;;;2.30;;
15799;SDS011;8002;51.196;7.010;2023-08-20T13:12:25;2.50;;;2.40;;
15799;SDS011;8002;51.196;7.010;2023-08-20T13:14:53;3.72;;;3.42;;
15799;SDS011;8002;51.196;7.010;2023-08-20T13:17:19;3.00;;;2.80;;
15799;SDS011;8002;51.196;7.010;2023-08-20T13:19:46;3.30;;;3.10;;
15799;SDS011;8002;51.196;7.010;2023-08-20T13:22:12;3.00;;;2.80;;
15799;SDS011;8002;51.196;7.010;2023-08-20T13:24:39;2.60;;;2.50;;
15799;SDS011;8002;51.196;7.010;2023-08-20T13:27:06;3.13;;;2.92;;
15799;SDS011;8002;51.196;7.010;2023-08-20T13:29:33;2.60;;;2.50;;
15799;SDS011;8002;51.196;7.010;2023-08-20T13:31:59;4.22;;;3.92;;
15799;SDS011;8002;51.196;7.010;2023-08-20T13:34:25;4.07;;;3.88;;
15799;SDS011;8002;51.196;7.010;2023-08-20T13:36:52;2.50;;;2.40;;
15799;SDS011;8002;51.196;7.010;2023-08-20T13:39:18;4.18;;;3.97;;
15799;SDS011;8002;51.196;7.010;2023-08-20T13:41:45;5.35;;;4.97;;
15799;SDS011;8002;51.196;7.010;2023-08-20T13:44:13;5.45;;;5.15;;
15799;SDS011;8002;51.196;7.010;2023-08-20T13:46:39;3.17;;;2.97;;
15799;SDS011;8002;51.196;7.010;2023-08-20T13:49:06;4.00;;;3.80;;
15799;SDS011;8002;51.196;7.010;2023-08-20T13:51:32;4.47;;;4.15;;
15799;SDS011;8002;51.196;7.010;2023-08-20T13:53:58;7.30;;;6.80;;
15799;SDS011;8002;51.196;7.010;2023-08-20T13:56:25;4.30;;;4.00;;
15799;SDS011;8002;51.196;7.010;2023-08-20T13:58:51;3.30;;;3.10;;
15799;SDS011;8002;51.196;7.010;2023-08-20T14:01:19;5.47;;;5.07;;
15799;SDS011;8002;51.196;7.010;2023-08-20T14:03:45;6.82;;;6.40;;
15799;SDS011;8002;51.196;7.010;2023-08-20T14:06:12;4.18;;;3.88;;
15799;SDS011;8002;51.196;7.010;2023-08-20T14:08:38;5.35;;;4.88;;
15799;SDS011;8002;51.196;7.010;2023-08-20T14:11:05;3.92;;;3.72;;
15799;SDS011;8002;51.196;7.010;2023-08-20T14:13:31;2.83;;;2.72;;
15799;SDS011;8002;51.196;7.010;2023-08-20T14:15:58;5.35;;;5.00;;
15799;SDS011;8002;51.196;7.010;2023-08-20T14:18:28;4.80;;;4.50;;
15799;SDS011;8002;51.196;7.010;2023-08-20T14:20:54;4.45;;;4.18;;
15799;SDS011;8002;51.196;7.010;2023-08-20T14:23:20;5.32;;;5.03;;
15799;SDS011;8002;51.196;7.010;2023-08-20T14:25:47;6.40;;;6.00;;
15799;SDS011;8002;51.196;7.010;2023-08-20T14:28:13;4.97;;;4.63;;
15799;SDS011;8002;51.196;7.010;2023-08-20T14:30:39;4.35;;;4.05;;
15799;SDS011;8002;51.196;7.010;2023-08-20T14:33:06;4.10;;;3.80;;
15799;SDS011;8002;51.196;7.010;2023-08-20T14:35:33;5.40;;;4.97;;
15799;SDS011;8002;51.196;7.010;2023-08-20T14:38:00;6.35;;;5.88;;
15799;SDS011;8002;51.196;7.010;2023-08-20T14:40:26;5.35;;;4.95;;
15799;SDS011;8002;51.196;7.010;2023-08-20T14:42:52;5.35;;;4.85;;
15799;SDS011;8002;51.196;7.010;2023-08-20T14:45:19;4.35;;;4.05;;
15799;SDS011;8002;51.196;7.010;2023-08-20T14:47:45;4.75;;;4.45;;
15799;SDS011;8002;51.196;7.010;2023-08-20T14:50:11;5.35;;;4.95;;
15799;SDS011;8002;51.196;7.010;2023-08-20T14:52:39;5.60;;;5.20;;
15799;SDS011;8002;51.196;7.010;2023-08-20T14:55:06;6.32;;;5.93;;
15799;SDS011;8002;51.196;7.010;2023-08-20T14:57:34;4.65;;;4.35;;
15799;SDS011;8002;51.196;7.010;2023-08-20T15:00:00;5.40;;;5.00;;
15799;SDS011;8002;51.196;7.010;2023-08-20T15:02:28;4.55;;;4.25;;